createdAt,value
2023-01-02T00:00:22.434Z,100873.19
2023-01-02T00:02:49.346Z,100873.19
2023-01-02T00:05:15.974Z,100866.25
2023-01-02T00:07:42.502Z,100874.84
2023-01-02T00:10:09.097Z,100875.69
2023-01-02T00:12:36.196Z,100884.25
2023-01-02T00:15:03.683Z,100876.34
2023-01-02T00:17:30.217Z,100888.50
2023-01-02T00:19:57.208Z,100882.41
2023-01-02T00:22:24.012Z,100875.38
2023-01-02T00:24:50.523Z,100877.91
2023-01-02T00:27:17.049Z,100872.78
2023-01-02T00:29:43.539Z,100875.38
2023-01-02T00:32:10.049Z,100878.75
2023-01-02T00:34:36.557Z,100880.41
2023-01-02T00:37:03.118Z,100878.66
2023-01-02T00:39:29.697Z,100881.25
2023-01-02T00:41:56.244Z,100881.19
2023-01-02T00:44:22.788Z,100870.72
2023-01-02T00:46:49.330Z,100860.28
2023-01-02T00:49:15.858Z,100863.72
2023-01-02T00:51:42.389Z,100859.28
2023-01-02T00:54:08.987Z,100867.09
2023-01-02T00:56:37.753Z,100866.16
2023-01-02T00:59:04.254Z,100865.31
2023-01-02T01:01:33.399Z,100869.69
2023-01-02T01:04:01.267Z,100863.72
2023-01-02T01:06:27.764Z,100862.81
2023-01-02T01:08:54.262Z,100861.81
2023-01-02T01:11:20.753Z,100860.97
2023-01-02T01:13:48.060Z,100862.81
2023-01-02T01:16:17.598Z,100855.06
2023-01-02T01:18:44.597Z,100856.28
2023-01-02T01:21:17.039Z,100872.16
2023-01-02T01:23:44.119Z,100866.09
2023-01-02T01:26:13.169Z,100858.34
2023-01-02T01:28:40.269Z,100863.56
2023-01-02T01:31:10.376Z,100857.50
2023-01-02T01:33:39.623Z,100871.31
2023-01-02T01:36:11.458Z,100854.06
2023-01-02T01:38:40.805Z,100864.63
2023-01-02T01:41:08.312Z,100864.78
2023-01-02T01:43:50.273Z,100851.88
2023-01-02T01:46:22.777Z,100844.88
2023-01-02T01:48:58.667Z,100852.72
2023-01-02T01:51:27.640Z,100851.22
2023-01-02T01:54:03.883Z,100848.69
2023-01-02T01:56:30.570Z,100850.44
2023-01-02T01:58:57.073Z,100856.44
2023-01-02T02:01:27.150Z,100859.25
2023-01-02T02:03:54.000Z,100867.91
2023-01-02T02:06:21.091Z,100853.19
2023-01-02T02:09:02.775Z,100863.97
2023-01-02T02:11:30.661Z,100864.06
2023-01-02T02:13:59.711Z,100859.78
2023-01-02T02:16:42.606Z,100862.38
2023-01-02T02:19:30.286Z,100859.91
2023-01-02T02:22:32.070Z,100866.25
2023-01-02T02:25:39.858Z,100867.09
2023-01-02T02:28:21.280Z,100865.41
2023-01-02T02:31:06.469Z,100871.44
2023-01-02T02:33:53.182Z,100878.38
2023-01-02T02:36:30.596Z,100881.03
2023-01-02T02:39:25.716Z,100883.63
2023-01-02T02:42:20.062Z,100869.00
2023-01-02T02:45:14.794Z,100869.16
2023-01-02T02:48:01.517Z,100859.59
2023-01-02T02:50:42.119Z,100847.53
2023-01-02T02:53:26.224Z,100820.44
2023-01-02T02:55:56.640Z,100838.81
2023-01-02T02:58:25.622Z,100856.19
2023-01-02T03:01:05.283Z,100857.03
2023-01-02T03:03:34.449Z,100849.31
2023-01-02T03:06:09.514Z,100835.31
2023-01-02T03:08:42.451Z,100843.97
2023-01-02T03:11:10.229Z,100850.84
2023-01-02T03:13:42.284Z,100857.81
2023-01-02T03:16:20.762Z,100867.31
2023-01-02T03:18:55.676Z,100862.94
2023-01-02T03:21:31.512Z,100874.22
2023-01-02T03:24:04.461Z,100878.56
2023-01-02T03:26:33.189Z,100878.50
2023-01-02T03:29:08.511Z,100867.16
2023-01-02T03:31:39.586Z,100864.56
2023-01-02T03:34:13.775Z,100871.41
2023-01-02T03:36:43.924Z,100869.69
2023-01-02T03:39:18.039Z,100871.59
2023-01-02T03:41:50.589Z,100867.25
2023-01-02T03:44:19.224Z,100873.28
2023-01-02T03:46:54.206Z,100876.06
2023-01-02T03:49:32.120Z,100881.25
2023-01-02T03:51:59.314Z,100872.59
2023-01-02T03:54:28.209Z,100877.97
2023-01-02T03:56:59.775Z,100876.38
2023-01-02T03:59:36.241Z,100885.03
2023-01-02T04:02:11.047Z,100886.06
2023-01-02T04:04:54.090Z,100886.16
2023-01-02T04:07:38.771Z,100885.31
2023-01-02T04:10:08.360Z,100873.22
2023-01-02T04:12:38.860Z,100875.88
2023-01-02T04:15:09.234Z,100883.00
2023-01-02T04:17:41.813Z,100889.03
2023-01-02T04:20:12.039Z,100891.78
2023-01-02T04:22:57.626Z,100881.31
2023-01-02T04:25:29.262Z,100887.44
2023-01-02T04:28:06.669Z,100884.53
2023-01-02T04:30:37.801Z,100897.69
2023-01-02T04:33:08.779Z,100890.91
2023-01-02T04:35:35.753Z,100892.63
2023-01-02T04:38:10.569Z,100884.88
2023-01-02T04:40:38.237Z,100883.00
2023-01-02T04:43:08.787Z,100891.63
2023-01-02T04:45:35.304Z,100894.31
2023-01-02T04:48:01.889Z,100895.94
2023-01-02T04:50:28.432Z,100896.78
2023-01-02T04:52:54.991Z,100904.38
2023-01-02T04:55:21.531Z,100905.97
2023-01-02T04:57:48.077Z,100898.19
2023-01-02T05:00:15.579Z,100903.31
2023-01-02T05:02:42.226Z,100897.25
2023-01-02T05:05:09.271Z,100893.59
2023-01-02T05:07:37.078Z,100900.53
2023-01-02T05:10:04.388Z,100895.25
2023-01-02T05:12:35.142Z,100899.47
2023-01-02T05:15:02.826Z,100910.81
2023-01-02T05:17:29.942Z,100911.59
2023-01-02T05:19:56.497Z,100922.84
2023-01-02T05:22:41.949Z,100921.00
2023-01-02T05:25:09.378Z,100925.25
2023-01-02T05:27:36.290Z,100935.59
2023-01-02T05:30:04.330Z,100926.00
2023-01-02T05:32:30.806Z,100911.06
2023-01-02T05:34:57.338Z,100922.31
2023-01-02T05:37:33.416Z,100920.56
2023-01-02T05:40:00.132Z,100932.75
2023-01-02T05:42:26.694Z,100929.38
2023-01-02T05:44:53.279Z,100929.38
2023-01-02T05:47:20.000Z,100921.44
2023-01-02T05:49:46.512Z,100929.94
2023-01-02T05:52:13.105Z,100934.31
2023-01-02T05:54:39.625Z,100930.78
2023-01-02T05:57:06.361Z,100938.66
2023-01-02T05:59:36.107Z,100946.56
2023-01-02T06:02:03.129Z,100946.69
2023-01-02T06:04:30.137Z,100938.94
2023-01-02T06:06:56.629Z,100938.09
2023-01-02T06:09:23.180Z,100940.78
2023-01-02T06:11:49.665Z,100950.50
2023-01-02T06:14:16.336Z,100945.16
2023-01-02T06:16:42.983Z,100955.69
2023-01-02T06:19:09.591Z,100951.19
2023-01-02T06:21:36.130Z,100962.66
2023-01-02T06:24:02.658Z,100953.44
2023-01-02T06:26:34.586Z,100957.81
2023-01-02T06:29:02.944Z,100959.50
2023-01-02T06:31:29.901Z,100960.53
2023-01-02T06:34:01.854Z,100964.78
2023-01-02T06:36:33.916Z,100964.81
2023-01-02T06:39:00.793Z,100966.66
2023-01-02T06:41:27.435Z,100978.75
2023-01-02T06:43:54.272Z,100979.69
2023-01-02T06:46:24.309Z,100982.41
2023-01-02T06:48:50.938Z,100992.03
2023-01-02T06:51:20.439Z,100991.19
2023-01-02T06:53:47.203Z,100989.72
2023-01-02T06:56:16.730Z,100986.97
2023-01-02T06:58:43.495Z,100988.78
2023-01-02T07:01:12.956Z,100993.16
2023-01-02T07:03:40.024Z,100988.03
2023-01-02T07:06:13.489Z,100998.44
2023-01-02T07:08:40.674Z,100996.75
2023-01-02T07:11:08.829Z,101004.59
2023-01-02T07:13:35.427Z,100998.56
2023-01-02T07:16:06.316Z,100994.25
2023-01-02T07:18:34.078Z,101008.06
2023-01-02T07:21:00.813Z,101014.16
2023-01-02T07:23:27.740Z,101019.44
2023-01-02T07:25:59.567Z,101018.53
2023-01-02T07:28:26.551Z,101016.00
2023-01-02T07:31:00.435Z,101024.72
2023-01-02T07:33:31.035Z,101032.34
2023-01-02T07:36:06.819Z,101034.03
2023-01-02T07:38:34.499Z,101040.84
2023-01-02T07:41:01.360Z,101039.03
2023-01-02T07:43:27.865Z,101049.50
2023-01-02T07:45:54.517Z,101055.44
2023-01-02T07:48:21.195Z,101064.22
2023-01-02T07:50:47.749Z,101059.00
2023-01-02T07:53:14.489Z,101064.78
2023-01-02T07:55:41.117Z,101068.97
2023-01-02T07:58:07.691Z,101061.94
2023-01-02T08:00:34.284Z,101071.19
2023-01-02T08:03:02.491Z,101080.69
2023-01-02T08:05:29.043Z,101079.66
2023-01-02T08:07:55.581Z,101085.19
2023-01-02T08:10:22.841Z,101089.06
2023-01-02T08:12:49.351Z,101092.91
2023-01-02T08:15:15.945Z,101100.06
2023-01-02T08:17:42.510Z,101094.22
2023-01-02T08:20:10.452Z,101110.72
2023-01-02T08:22:37.606Z,101114.25
2023-01-02T08:25:04.696Z,101109.97
2023-01-02T08:27:31.342Z,101134.16
2023-01-02T08:29:57.909Z,101127.41
2023-01-02T08:32:25.155Z,101150.06
2023-01-02T08:34:51.728Z,101152.66
2023-01-02T08:37:18.516Z,101164.81
2023-01-02T08:39:45.091Z,101177.88
2023-01-02T08:42:12.954Z,101199.53
2023-01-02T08:44:39.476Z,101207.41
2023-01-02T08:47:06.150Z,101215.66
2023-01-02T08:49:32.737Z,101219.59
2023-01-02T08:51:59.300Z,101227.38
2023-01-02T08:54:25.857Z,101238.16
2023-01-02T08:56:55.075Z,101238.56
2023-01-02T08:59:24.561Z,101257.81
2023-01-02T09:01:52.360Z,101255.22
2023-01-02T09:04:19.519Z,101264.75
2023-01-02T09:06:46.395Z,101262.16
2023-01-02T09:09:15.636Z,101263.72
2023-01-02T09:11:50.373Z,101271.66
2023-01-02T09:14:18.656Z,101278.63
2023-01-02T09:16:45.261Z,101278.75
2023-01-02T09:19:11.864Z,101289.16
2023-01-02T09:21:38.408Z,101296.28
2023-01-02T09:24:05.868Z,101308.38
2023-01-02T09:26:35.473Z,101305.09
2023-01-02T09:29:02.022Z,101307.09
2023-01-02T09:31:28.677Z,101312.28
2023-01-02T09:33:55.380Z,101313.78
2023-01-02T09:36:22.919Z,101319.03
2023-01-02T09:38:57.737Z,101319.03
2023-01-02T09:41:30.345Z,101329.16
2023-01-02T09:44:05.653Z,101339.56
2023-01-02T09:46:40.704Z,101333.91
2023-01-02T09:49:10.765Z,101340.59
2023-01-02T09:51:37.861Z,101343.06
2023-01-02T09:54:06.376Z,101348.97
2023-01-02T09:56:38.450Z,101349.97
2023-01-02T09:59:16.824Z,101352.53
2023-01-02T10:02:21.478Z,101358.47
2023-01-02T10:05:20.611Z,101369.78
2023-01-02T10:07:58.150Z,101375.66
2023-01-02T10:10:34.758Z,101382.66
2023-01-02T10:13:07.051Z,101387.00
2023-01-02T10:15:34.197Z,101386.50
2023-01-02T10:18:14.164Z,101393.72
2023-01-02T10:20:44.805Z,101379.69
2023-01-02T10:23:17.718Z,101395.28
2023-01-02T10:25:55.378Z,101400.59
2023-01-02T10:28:44.247Z,101402.19
2023-01-02T10:31:23.893Z,101394.34
2023-01-02T10:33:54.037Z,101394.16
2023-01-02T10:36:23.705Z,101385.59
2023-01-02T10:38:53.985Z,101382.19
2023-01-02T10:41:20.669Z,101386.38
2023-01-02T10:43:54.341Z,101384.59
2023-01-02T10:46:20.970Z,101381.97
2023-01-02T10:48:52.251Z,101386.06
2023-01-02T10:51:19.142Z,101387.81
2023-01-02T10:54:03.399Z,101397.09
2023-01-02T10:56:32.641Z,101392.53
2023-01-02T10:58:59.951Z,101399.44
2023-01-02T11:01:27.359Z,101399.63
2023-01-02T11:03:57.729Z,101398.59
2023-01-02T11:06:39.432Z,101390.72
2023-01-02T11:09:28.273Z,101405.56
2023-01-02T11:11:57.761Z,101406.75
2023-01-02T11:14:32.665Z,101414.75
2023-01-02T11:17:04.496Z,101407.38
2023-01-02T11:19:31.651Z,101411.91
2023-01-02T11:21:58.330Z,101423.31
2023-01-02T11:24:28.554Z,101426.69
2023-01-02T11:26:56.026Z,101424.78
2023-01-02T11:29:32.452Z,101429.13
2023-01-02T11:32:04.235Z,101434.06
2023-01-02T11:34:36.745Z,101440.75
2023-01-02T11:37:06.120Z,101435.47
2023-01-02T11:39:34.549Z,101446.78
2023-01-02T11:42:26.702Z,101435.56
2023-01-02T11:45:01.375Z,101419.75
2023-01-02T11:47:44.639Z,101416.38
2023-01-02T11:50:16.153Z,101424.94
2023-01-02T11:52:54.888Z,101428.94
2023-01-02T11:55:46.603Z,101439.34
2023-01-02T11:58:30.364Z,101428.94
2023-01-02T12:01:25.818Z,101429.72
2023-01-02T12:03:52.648Z,101438.22
2023-01-02T12:06:22.385Z,101441.72
2023-01-02T12:09:26.946Z,101446.25
2023-01-02T12:12:28.616Z,101458.22
2023-01-02T12:15:07.419Z,101460.25
2023-01-02T12:18:04.153Z,101462.78
2023-01-02T12:20:41.282Z,101463.50
2023-01-02T12:23:19.940Z,101467.06
2023-01-02T12:25:49.485Z,101474.28
2023-01-02T12:28:37.541Z,101483.81
2023-01-02T12:31:21.253Z,101486.59
2023-01-02T12:33:56.461Z,101483.19
2023-01-02T12:36:32.336Z,101479.72
2023-01-02T12:39:25.031Z,101486.91
2023-01-02T12:42:26.118Z,101497.88
2023-01-02T12:44:55.061Z,101485.88
2023-01-02T12:47:29.306Z,101485.09
2023-01-02T12:50:22.215Z,101479.72
2023-01-02T12:53:13.759Z,101486.59
2023-01-02T12:55:51.039Z,101503.09
2023-01-02T12:58:36.751Z,101484.88
2023-01-02T13:01:44.807Z,101494.22
2023-01-02T13:04:20.296Z,101492.72
2023-01-02T13:07:33.094Z,101493.59
2023-01-02T13:10:02.976Z,101500.50
2023-01-02T13:12:32.779Z,101491.00
2023-01-02T13:15:02.946Z,101491.66
2023-01-02T13:17:50.611Z,101505.38
2023-01-02T13:20:19.853Z,101508.75
2023-01-02T13:23:05.746Z,101503.56
2023-01-02T13:25:45.978Z,101503.34
2023-01-02T13:28:14.255Z,101501.78
2023-01-02T13:31:05.511Z,101512.28
2023-01-02T13:33:47.515Z,101523.69
2023-01-02T13:36:26.985Z,101525.28
2023-01-02T13:38:57.955Z,101518.63
2023-01-02T13:41:26.899Z,101520.66
2023-01-02T13:43:59.023Z,101515.69
2023-01-02T13:49:21.285Z,101522.66
2023-01-02T13:51:47.977Z,101526.97
2023-01-02T13:54:20.997Z,101527.81
2023-01-02T13:57:17.627Z,101524.28
2023-01-02T14:00:20.239Z,101528.59
2023-01-02T14:03:22.885Z,101538.28
2023-01-02T14:06:03.548Z,101550.59
2023-01-02T14:08:37.853Z,101564.78
2023-01-02T14:11:17.867Z,101546.63
2023-01-02T14:13:49.250Z,101545.34
2023-01-02T14:16:46.507Z,101555.69
2023-01-02T14:19:12.941Z,101559.44
2023-01-02T14:21:45.659Z,101556.00
2023-01-02T14:24:29.825Z,101564.63
2023-01-02T14:27:01.843Z,101567.47
2023-01-02T14:29:30.494Z,101568.31
2023-01-02T14:32:00.520Z,101571.72
2023-01-02T14:34:27.351Z,101576.00
2023-01-02T14:36:59.432Z,101575.22
2023-01-02T14:39:34.755Z,101565.66
2023-01-02T14:42:31.403Z,101574.97
2023-01-02T14:45:03.106Z,101584.63
2023-01-02T14:47:48.049Z,101592.59
2023-01-02T14:50:21.106Z,101601.38
2023-01-02T14:52:55.436Z,101599.50
2023-01-02T14:55:25.227Z,101609.94
2023-01-02T14:57:53.840Z,101614.97
2023-01-02T15:00:26.405Z,101621.00
2023-01-02T15:03:17.480Z,101619.47
2023-01-02T15:06:05.614Z,101612.47
2023-01-02T15:08:53.313Z,101616.09
2023-01-02T15:11:40.959Z,101607.47
2023-01-02T15:14:13.576Z,101610.81
2023-01-02T15:16:48.752Z,101615.34
2023-01-02T15:19:20.464Z,101613.56
2023-01-02T15:21:47.272Z,101620.56
2023-01-02T15:24:32.017Z,101614.47
2023-01-02T15:27:22.878Z,101622.25
2023-01-02T15:29:53.916Z,101629.03
2023-01-02T15:32:23.621Z,101636.84
2023-01-02T15:34:50.731Z,101644.56
2023-01-02T15:37:23.000Z,101651.53
2023-01-02T15:39:53.674Z,101657.56
2023-01-02T15:42:43.933Z,101659.38
2023-01-02T15:45:20.063Z,101674.16
2023-01-02T15:47:49.324Z,101667.38
2023-01-02T15:50:22.579Z,101671.91
2023-01-02T15:52:57.260Z,101677.94
2023-01-02T15:55:24.333Z,101684.00
2023-01-02T15:57:53.847Z,101685.66
2023-01-02T16:00:36.175Z,101690.03
2023-01-02T16:03:03.906Z,101696.13
2023-01-02T16:05:43.463Z,101693.66
2023-01-02T16:08:18.716Z,101700.47
2023-01-02T16:10:50.764Z,101706.53
2023-01-02T16:13:47.307Z,101710.78
2023-01-02T16:16:15.930Z,101709.06
2023-01-02T16:18:47.140Z,101712.66
2023-01-02T16:21:15.302Z,101723.13
2023-01-02T16:23:47.934Z,101719.03
2023-01-02T16:26:14.903Z,101726.72
2023-01-02T16:28:43.839Z,101734.34
2023-01-02T16:31:18.064Z,101738.63
2023-01-02T16:33:46.336Z,101749.09
2023-01-02T16:36:12.979Z,101753.38
2023-01-02T16:38:53.079Z,101775.84
2023-01-02T16:41:47.974Z,101784.00
2023-01-02T16:44:16.650Z,101773.13
2023-01-02T16:46:45.471Z,101768.09
2023-01-02T16:49:15.675Z,101759.50
2023-01-02T16:51:45.383Z,101755.31
2023-01-02T16:54:16.975Z,101776.25
2023-01-02T16:56:43.784Z,101766.97
2023-01-02T16:59:10.461Z,101766.06
2023-01-02T17:01:37.248Z,101770.34
2023-01-02T17:04:04.924Z,101776.25
2023-01-02T17:06:31.721Z,101780.72
2023-01-02T17:08:58.228Z,101791.03
2023-01-02T17:11:24.901Z,101795.53
2023-01-02T17:13:52.794Z,101796.56
2023-01-02T17:16:20.365Z,101803.69
2023-01-02T17:18:47.130Z,101811.53
2023-01-02T17:21:13.738Z,101816.69
2023-01-02T17:23:40.341Z,101815.97
2023-01-02T17:26:06.989Z,101827.41
2023-01-02T17:28:33.505Z,101838.59
2023-01-02T17:31:00.029Z,101837.84
2023-01-02T17:33:26.535Z,101841.34
2023-01-02T17:35:53.033Z,101845.59
2023-01-02T17:38:19.873Z,101845.59
2023-01-02T17:40:46.400Z,101849.94
2023-01-02T17:43:12.947Z,101854.19
2023-01-02T17:45:42.359Z,101855.94
2023-01-02T17:48:12.345Z,101860.38
2023-01-02T17:50:41.035Z,101871.66
2023-01-02T17:53:08.008Z,101877.75
2023-01-02T17:55:34.843Z,101881.09
2023-01-02T17:58:01.698Z,101885.50
2023-01-02T18:00:28.640Z,101893.25
2023-01-02T18:03:05.843Z,101896.66
2023-01-02T18:05:35.436Z,101895.72
2023-01-02T18:08:02.452Z,101907.03
2023-01-02T18:10:33.085Z,101909.63
2023-01-02T18:13:00.055Z,101906.16
2023-01-02T18:15:26.696Z,101911.53
2023-01-02T18:17:55.181Z,101911.63
2023-01-02T18:20:23.293Z,101921.97
2023-01-02T18:22:55.880Z,101928.03
2023-01-02T18:25:25.332Z,101935.03
2023-01-02T18:27:59.686Z,101933.34
2023-01-02T18:30:28.873Z,101942.88
2023-01-02T18:33:13.336Z,101947.19
2023-01-02T18:35:57.174Z,101959.28
2023-01-02T18:38:30.964Z,101954.13
2023-01-02T18:40:57.549Z,101965.31
2023-01-02T18:43:31.794Z,101963.59
2023-01-02T18:46:00.538Z,101961.94
2023-01-02T18:48:27.644Z,101967.16
2023-01-02T18:51:00.812Z,101974.84
2023-01-02T18:53:43.510Z,101967.91
2023-01-02T18:56:18.917Z,101973.25
2023-01-02T18:59:14.695Z,101982.72
2023-01-02T19:01:50.297Z,101984.41
2023-01-02T19:04:28.424Z,101986.19
2023-01-02T19:07:01.877Z,101995.56
2023-01-02T19:09:34.875Z,101997.25
2023-01-02T19:12:32.306Z,101996.41
2023-01-02T19:15:21.015Z,101995.53
2023-01-02T19:17:47.496Z,102007.63
2023-01-02T19:20:14.826Z,102003.22
2023-01-02T19:22:41.290Z,102025.69
2023-01-02T19:25:23.022Z,102032.59
2023-01-02T19:27:54.068Z,102031.63
2023-01-02T19:30:30.950Z,102027.25
2023-01-02T19:32:58.074Z,102047.13
2023-01-02T19:35:24.751Z,102046.19
2023-01-02T19:37:51.924Z,102049.72
2023-01-02T19:40:23.184Z,102052.31
2023-01-02T19:42:54.489Z,102058.38
2023-01-02T19:45:23.438Z,102058.28
2023-01-02T19:47:50.908Z,102067.81
2023-01-02T19:50:23.297Z,102062.69
2023-01-02T19:52:50.256Z,102069.63
2023-01-02T19:55:20.368Z,102081.81
2023-01-02T19:57:47.376Z,102081.75
2023-01-02T20:00:16.270Z,102076.44
2023-01-02T20:02:45.824Z,102079.13
2023-01-02T20:05:17.629Z,102084.34
2023-01-02T20:07:48.158Z,102087.69
2023-01-02T20:10:14.856Z,102094.66
2023-01-02T20:12:41.581Z,102089.50
2023-01-02T20:15:13.003Z,102096.44
2023-01-02T20:17:39.798Z,102105.84
2023-01-02T20:20:08.926Z,102093.78
2023-01-02T20:22:36.197Z,102100.75
2023-01-02T20:25:03.241Z,102105.09
2023-01-02T20:27:29.785Z,102098.22
2023-01-02T20:29:56.318Z,102113.78
2023-01-02T20:32:23.733Z,102113.84
2023-01-02T20:34:51.194Z,102113.94
2023-01-02T20:37:21.087Z,102125.19
2023-01-02T20:39:49.953Z,102137.31
2023-01-02T20:42:16.825Z,102133.09
2023-01-02T20:44:46.999Z,102127.97
2023-01-02T20:47:13.655Z,102131.34
2023-01-02T20:49:40.786Z,102138.34
2023-01-02T20:52:08.333Z,102139.19
2023-01-02T20:54:35.524Z,102147.91
2023-01-02T20:57:02.437Z,102147.09
2023-01-02T20:59:29.000Z,102153.06
2023-01-02T21:01:55.712Z,102167.72
2023-01-02T21:04:24.894Z,102167.63
2023-01-02T21:06:55.924Z,102170.19
2023-01-02T21:09:22.605Z,102177.94
2023-01-02T21:11:49.212Z,102180.56
2023-01-02T21:14:18.045Z,102184.13
2023-01-02T21:16:44.570Z,102177.34
2023-01-02T21:19:11.035Z,102179.94
2023-01-02T21:21:37.637Z,102180.81
2023-01-02T21:24:04.354Z,102183.44
2023-01-02T21:26:30.898Z,102186.91
2023-01-02T21:28:57.445Z,102199.91
2023-01-02T21:31:24.260Z,102194.72
2023-01-02T21:33:50.763Z,102191.25
2023-01-02T21:36:17.416Z,102199.91
2023-01-02T21:38:44.122Z,102212.06
2023-01-02T21:41:30.219Z,102206.94
2023-01-02T21:43:56.799Z,102211.22
2023-01-02T21:46:23.441Z,102209.50
2023-01-02T21:48:50.143Z,102210.38
2023-01-02T21:51:16.705Z,102211.25
2023-01-02T21:53:43.270Z,102203.53
2023-01-02T21:56:09.977Z,102202.69
2023-01-02T21:58:36.550Z,102213.94
2023-01-02T22:01:03.298Z,102202.75
2023-01-02T22:03:30.041Z,102207.91
2023-01-02T22:05:56.646Z,102209.66
2023-01-02T22:08:23.258Z,102211.47
2023-01-02T22:10:49.956Z,102215.75
2023-01-02T22:13:16.726Z,102220.91
2023-01-02T22:15:46.315Z,102232.19
2023-01-02T22:18:13.090Z,102242.53
2023-01-02T22:20:42.283Z,102241.69
2023-01-02T22:23:08.797Z,102249.47
2023-01-02T22:25:35.902Z,102250.38
2023-01-02T22:28:03.630Z,102257.28
2023-01-02T22:30:34.552Z,102257.31
2023-01-02T22:33:02.176Z,102259.03
2023-01-02T22:35:28.952Z,102267.72
2023-01-02T22:37:57.378Z,102262.56
2023-01-02T22:40:24.138Z,102264.34
2023-01-02T22:43:02.208Z,102267.75
2023-01-02T22:45:35.655Z,102272.94
2023-01-02T22:48:07.455Z,102282.47
2023-01-02T22:50:41.717Z,102277.31
2023-01-02T22:53:19.017Z,102279.84
2023-01-02T22:55:45.919Z,102284.13
2023-01-02T22:58:13.227Z,102298.88
2023-01-02T23:00:39.984Z,102294.59
2023-01-02T23:03:11.837Z,102291.16
2023-01-02T23:05:38.418Z,102291.19
2023-01-02T23:08:05.126Z,102285.97
2023-01-02T23:10:31.823Z,102294.56
2023-01-02T23:12:58.493Z,102290.25
2023-01-02T23:15:25.018Z,102303.19
2023-01-02T23:18:10.274Z,102304.94
2023-01-02T23:20:36.754Z,102305.75
2023-01-02T23:23:03.279Z,102309.19
2023-01-02T23:25:29.822Z,102303.19
2023-01-02T23:27:56.505Z,102313.50
2023-01-02T23:30:23.010Z,102311.81
2023-01-02T23:32:49.608Z,102317.00
2023-01-02T23:35:16.220Z,102316.09
2023-01-02T23:37:42.766Z,102320.44
2023-01-02T23:40:09.877Z,102317.88
2023-01-02T23:42:36.399Z,102311.81
2023-01-02T23:45:03.341Z,102309.25
2023-01-02T23:47:29.785Z,102311.00
2023-01-02T23:49:56.360Z,102317.91
2023-01-02T23:52:22.976Z,102311.91
2023-01-02T23:54:49.462Z,102305.88
2023-01-02T23:57:15.989Z,102315.38
2023-01-02T23:59:42.577Z,102311.94
